sensor_id;sensor_type;location;lat;lon;timestamp;temperature;humidity
35463;DHT22;21578;47.892;9.970;2023-08-06T02:22:02;13.20;96.60
35463;DHT22;21578;47.892;9.970;2023-08-06T02:26:49;13.10;96.60
35463;DHT22;21578;47.892;9.970;2023-08-06T02:31:36;13.10;96.60
35463;DHT22;21578;47.892;9.970;2023-08-06T04:00:14;12.90;96.60
35463;DHT22;21578;47.892;9.970;2023-08-06T04:05:01;12.90;96.60
35463;DHT22;21578;47.892;9.970;2023-08-06T04:09:57;13.00;96.60
35463;DHT22;21578;47.892;9.970;2023-08-06T04:25:24;12.90;96.60
35463;DHT22;21578;47.892;9.970;2023-08-06T04:30:11;13.00;96.60
35463;DHT22;21578;47.892;9.970;2023-08-06T04:34:58;12.90;96.60
35463;DHT22;21578;47.892;9.970;2023-08-06T04:39:45;12.90;96.60
35463;DHT22;21578;47.892;9.970;2023-08-06T04:44:34;13.00;96.60
35463;DHT22;21578;47.892;9.970;2023-08-06T04:49:21;13.00;96.60
35463;DHT22;21578;47.892;9.970;2023-08-06T04:54:08;13.10;96.60
35463;DHT22;21578;47.892;9.970;2023-08-06T04:58:55;13.20;96.60
35463;DHT22;21578;47.892;9.970;2023-08-06T05:03:43;13.10;96.60
35463;DHT22;21578;47.892;9.970;2023-08-06T05:08:30;13.10;96.60
35463;DHT22;21578;47.892;9.970;2023-08-06T05:13:17;13.10;96.60
35463;DHT22;21578;47.892;9.970;2023-08-06T05:18:04;13.10;96.60
35463;DHT22;21578;47.892;9.970;2023-08-06T05:22:52;13.10;96.60
35463;DHT22;21578;47.892;9.970;2023-08-06T05:27:39;13.00;96.60
35463;DHT22;21578;47.892;9.970;2023-08-06T05:32:26;13.00;96.60
35463;DHT22;21578;47.892;9.970;2023-08-06T05:37:13;13.00;96.60
35463;DHT22;21578;47.892;9.970;2023-08-06T05:42:01;13.00;96.60
35463;DHT22;21578;47.892;9.970;2023-08-06T05:46:49;12.90;96.60
35463;DHT22;21578;47.892;9.970;2023-08-06T05:51:35;12.90;96.60
35463;DHT22;21578;47.892;9.970;2023-08-06T05:56:22;12.90;96.60
35463;DHT22;21578;47.892;9.970;2023-08-06T06:01:11;12.90;96.60
35463;DHT22;21578;47.892;9.970;2023-08-06T06:05:59;12.90;96.60
35463;DHT22;21578;47.892;9.970;2023-08-06T06:10:47;12.80;96.60
35463;DHT22;21578;47.892;9.970;2023-08-06T06:15:34;12.80;96.60
35463;DHT22;21578;47.892;9.970;2023-08-06T06:20:23;12.90;96.60
35463;DHT22;21578;47.892;9.970;2023-08-06T06:25:10;13.00;96.60
35463;DHT22;21578;47.892;9.970;2023-08-06T06:29:57;13.10;96.60
35463;DHT22;21578;47.892;9.970;2023-08-06T06:34:44;13.10;96.60
35463;DHT22;21578;47.892;9.970;2023-08-06T06:39:32;13.10;96.60
35463;DHT22;21578;47.892;9.970;2023-08-06T06:44:19;13.10;96.60
35463;DHT22;21578;47.892;9.970;2023-08-06T06:49:06;13.00;96.60
35463;DHT22;21578;47.892;9.970;2023-08-06T06:53:53;13.00;96.60
35463;DHT22;21578;47.892;9.970;2023-08-06T06:58:41;12.90;96.60
35463;DHT22;21578;47.892;9.970;2023-08-06T07:03:28;12.80;96.60
35463;DHT22;21578;47.892;9.970;2023-08-06T07:08:15;12.90;96.60
35463;DHT22;21578;47.892;9.970;2023-08-06T07:13:02;13.00;96.60
35463;DHT22;21578;47.892;9.970;2023-08-06T07:17:50;13.00;96.60
35463;DHT22;21578;47.892;9.970;2023-08-06T07:22:37;13.00;96.60
35463;DHT22;21578;47.892;9.970;2023-08-06T07:27:25;13.10;96.60
35463;DHT22;21578;47.892;9.970;2023-08-06T07:32:12;13.20;96.60
35463;DHT22;21578;47.892;9.970;2023-08-06T07:37:00;13.20;96.60
35463;DHT22;21578;47.892;9.970;2023-08-06T07:41:47;13.20;96.60
35463;DHT22;21578;47.892;9.970;2023-08-06T07:46:34;13.40;96.60
35463;DHT22;21578;47.892;9.970;2023-08-06T07:51:21;13.40;96.60
35463;DHT22;21578;47.892;9.970;2023-08-06T07:56:09;13.30;96.60
35463;DHT22;21578;47.892;9.970;2023-08-06T08:00:56;13.50;96.60
35463;DHT22;21578;47.892;9.970;2023-08-06T08:05:43;13.60;96.60
35463;DHT22;21578;47.892;9.970;2023-08-06T08:10:31;13.20;96.60
35463;DHT22;21578;47.892;9.970;2023-08-06T08:15:20;12.70;96.60
35463;DHT22;21578;47.892;9.970;2023-08-06T08:20:07;12.50;96.60
35463;DHT22;21578;47.892;9.970;2023-08-06T08:24:54;12.40;96.60
35463;DHT22;21578;47.892;9.970;2023-08-06T08:29:41;12.20;96.60
35463;DHT22;21578;47.892;9.970;2023-08-06T08:34:30;12.20;96.60
35463;DHT22;21578;47.892;9.970;2023-08-06T08:39:17;12.10;96.60
35463;DHT22;21578;47.892;9.970;2023-08-06T08:44:06;12.20;96.60
35463;DHT22;21578;47.892;9.970;2023-08-06T08:48:57;12.20;96.60
35463;DHT22;21578;47.892;9.970;2023-08-06T08:53:50;12.20;96.60
35463;DHT22;21578;47.892;9.970;2023-08-06T08:58:41;12.30;96.60
35463;DHT22;21578;47.892;9.970;2023-08-06T09:03:28;12.30;96.60
35463;DHT22;21578;47.892;9.970;2023-08-06T09:08:18;12.20;96.60
35463;DHT22;21578;47.892;9.970;2023-08-06T09:13:07;12.20;96.60
35463;DHT22;21578;47.892;9.970;2023-08-06T09:17:55;12.10;96.60
35463;DHT22;21578;47.892;9.970;2023-08-06T09:22:42;12.10;96.60
35463;DHT22;21578;47.892;9.970;2023-08-06T09:27:30;12.10;96.60
35463;DHT22;21578;47.892;9.970;2023-08-06T09:32:18;12.10;96.60
35463;DHT22;21578;47.892;9.970;2023-08-06T09:37:05;12.10;96.60
35463;DHT22;21578;47.892;9.970;2023-08-06T09:41:55;12.00;96.60
35463;DHT22;21578;47.892;9.970;2023-08-06T09:46:42;11.90;96.60
35463;DHT22;21578;47.892;9.970;2023-08-06T09:51:31;11.80;96.60
35463;DHT22;21578;47.892;9.970;2023-08-06T09:56:20;11.90;96.60
35463;DHT22;21578;47.892;9.970;2023-08-06T10:01:08;11.90;96.60
35463;DHT22;21578;47.892;9.970;2023-08-06T10:05:55;11.90;96.60
35463;DHT22;21578;47.892;9.970;2023-08-06T10:10:44;11.90;96.60
35463;DHT22;21578;47.892;9.970;2023-08-06T10:15:33;12.00;96.60
35463;DHT22;21578;47.892;9.970;2023-08-06T10:20:22;12.00;96.60
